Time;durP1;ratioP1;P1;durP2;ratioP2;P2;SDS_P1;SDS_P2;PMS_P1;PMS_P2;Temp;Humidity;BMP_temperature;BMP_pressure;BME280_temperature;BME280_humidity;BME280_pressure;Samples;Min_cycle;Max_cycle;Signal;HPM_P1;HPM_P2
2021/09/12 00:02:24;;;;;;;5.40;2.53;;;12.90;99.90;;;14.12;100.00;98437.66;5068748;28;20500;-82
2021/09/12 00:04:53;;;;;;;6.50;2.47;;;13.00;99.90;;;14.13;100.00;98434.81;5056905;28;20472;-82
2021/09/12 00:07:21;;;;;;;5.13;2.77;;;13.00;99.90;;;14.13;100.00;98433.97;5062130;28;21038;-83
2021/09/12 00:09:50;;;;;;;6.33;2.80;;;13.00;99.90;;;14.17;100.00;98437.03;5055662;28;20469;-82
2021/09/12 00:12:20;;;;;;;12.53;3.03;;;13.00;99.90;;;14.04;100.00;98432.56;5057597;28;20457;-82
2021/09/12 00:14:48;;;;;;;7.03;2.87;;;13.00;99.90;;;13.96;100.00;98435.38;5056843;28;20925;-82
2021/09/12 00:17:17;;;;;;;9.43;2.93;;;12.80;99.90;;;13.99;100.00;98435.78;5052971;28;20515;-82
2021/09/12 00:19:45;;;;;;;7.10;2.77;;;13.00;99.90;;;14.03;100.00;98438.81;5066694;28;20456;-82
2021/09/12 00:22:13;;;;;;;8.07;2.17;;;13.00;99.90;;;14.10;100.00;98434.38;5062528;28;20495;-82
2021/09/12 00:24:42;;;;;;;3.43;2.67;;;13.10;99.90;;;14.12;100.00;98435.00;5064326;28;20541;-82
2021/09/12 00:27:10;;;;;;;4.90;2.77;;;13.10;99.90;;;14.02;100.00;98431.97;5057587;28;20437;-82
2021/09/12 00:29:40;;;;;;;5.13;2.80;;;13.00;99.90;;;14.03;100.00;98438.81;5062879;28;20486;-82
2021/09/12 00:32:09;;;;;;;2.57;2.37;;;13.00;99.90;;;13.96;100.00;98432.75;5051573;28;20464;-82
2021/09/12 00:34:38;;;;;;;3.57;2.53;;;12.90;99.90;;;13.91;100.00;98435.16;5051115;28;21222;-82
2021/09/12 00:37:06;;;;;;;4.97;2.17;;;12.80;99.90;;;13.98;100.00;98433.38;5059706;28;20460;-82
2021/09/12 00:39:35;;;;;;;2.63;2.40;;;12.90;99.90;;;13.97;100.00;98439.63;5059170;28;20460;-82
2021/09/12 00:42:04;;;;;;;2.57;2.37;;;12.90;99.90;;;13.81;100.00;98446.06;5053332;28;20489;-82
2021/09/12 00:44:32;;;;;;;2.70;2.50;;;12.60;99.90;;;13.82;100.00;98439.78;5060749;28;20497;-82
2021/09/12 00:47:10;;;;;;;6.40;2.80;;;12.70;99.90;;;13.80;100.00;98441.81;5060470;28;20460;-82
2021/09/12 00:49:39;;;;;;;4.27;2.73;;;12.70;99.90;;;13.70;100.00;98437.94;5058706;28;20464;-83
2021/09/12 00:52:10;;;;;;;8.53;2.47;;;12.50;99.90;;;13.66;100.00;98440.13;5062287;28;20457;-82
2021/09/12 00:54:41;;;;;;;14.23;2.83;;;12.50;99.90;;;13.68;100.00;98440.75;5056976;28;20528;-82
2021/09/12 00:57:12;;;;;;;5.40;2.40;;;12.50;99.90;;;13.71;100.00;98439.56;5063950;28;20488;-82
2021/09/12 00:59:44;;;;;;;9.23;2.60;;;12.50;99.90;;;13.67;100.00;98443.59;5057185;28;20816;-82
2021/09/12 01:02:14;;;;;;;6.70;2.47;;;12.50;99.90;;;13.69;100.00;98444.19;5058513;28;20460;-82
2021/09/12 01:04:43;;;;;;;2.93;2.57;;;12.50;99.90;;;13.60;100.00;98444.38;5056643;28;20464;-82
2021/09/12 01:07:11;;;;;;;8.70;2.80;;;12.40;99.90;;;13.66;100.00;98444.59;5049885;28;20461;-83
2021/09/12 01:09:41;;;;;;;5.70;2.60;;;12.50;99.90;;;13.63;100.00;98447.59;5055362;28;20461;-82
2021/09/12 01:12:11;;;;;;;5.13;3.70;;;12.50;99.90;;;13.38;100.00;98440.22;5059965;28;20910;-82
2021/09/12 01:14:40;;;;;;;11.60;2.10;;;12.30;99.90;;;13.46;100.00;98447.94;5054019;28;20620;-83
2021/09/12 01:17:09;;;;;;;4.23;2.50;;;12.30;99.90;;;13.50;100.00;98451.00;5060657;28;20503;-82
2021/09/12 01:19:38;;;;;;;2.70;2.40;;;12.40;99.90;;;13.47;100.00;98448.75;5065633;28;20461;-82
2021/09/12 01:22:08;;;;;;;9.77;2.90;;;12.30;99.90;;;13.48;100.00;98445.94;5065730;28;20460;-82
2021/09/12 01:24:38;;;;;;;7.90;3.47;;;12.40;99.90;;;13.40;100.00;98435.56;5060635;28;20460;-82
2021/09/12 01:27:07;;;;;;;8.00;3.00;;;12.20;99.90;;;13.31;100.00;98434.13;5058287;28;20533;-82
2021/09/12 01:29:36;;;;;;;3.00;2.60;;;12.20;99.90;;;13.21;100.00;98436.31;5057338;28;20461;-82
2021/09/12 01:32:05;;;;;;;3.30;2.27;;;12.00;99.90;;;13.21;100.00;98428.41;5053567;28;20484;-82
2021/09/12 01:34:34;;;;;;;4.97;2.77;;;12.00;99.90;;;13.28;100.00;98424.00;5052139;28;20484;-83
2021/09/12 01:37:03;;;;;;;5.60;2.23;;;12.10;99.90;;;13.27;100.00;98419.75;5050868;28;20519;-82
2021/09/12 01:39:31;;;;;;;5.20;2.80;;;12.20;99.90;;;13.23;100.00;98426.41;5058890;28;20460;-82
2021/09/12 01:42:01;;;;;;;6.20;2.50;;;12.20;99.90;;;13.15;100.00;98421.31;5053565;28;20444;-82
2021/09/12 01:44:29;;;;;;;3.17;2.40;;;12.00;99.90;;;13.12;100.00;98419.06;5056089;28;20485;-82
2021/09/12 01:46:58;;;;;;;2.60;2.37;;;12.00;99.90;;;13.18;100.00;98426.19;5057433;28;20484;-82
2021/09/12 01:49:27;;;;;;;5.50;2.80;;;12.10;99.90;;;13.22;100.00;98418.72;5056500;28;20468;-82
2021/09/12 01:51:55;;;;;;;4.70;2.00;;;12.20;99.90;;;13.16;100.00;98425.56;5054880;28;20522;-82
2021/09/12 01:54:24;;;;;;;2.77;2.30;;;12.10;99.90;;;13.14;100.00;98427.56;5050213;28;20496;-82
2021/09/12 01:56:52;;;;;;;5.30;2.90;;;12.10;99.90;;;12.99;100.00;98418.97;5054377;28;20561;-82
2021/09/12 01:59:22;;;;;;;3.60;2.07;;;11.90;99.90;;;12.97;100.00;98420.97;5055225;28;20478;-82
2021/09/12 02:01:51;;;;;;;11.63;2.57;;;11.80;99.90;;;13.08;100.00;98418.59;5059913;28;21046;-82
2021/09/12 02:04:20;;;;;;;3.23;2.30;;;12.00;99.90;;;13.05;100.00;98423.47;5056987;28;20472;-82
2021/09/12 02:06:48;;;;;;;8.80;2.80;;;11.90;99.90;;;13.06;100.00;98427.69;5049718;28;20461;-82
2021/09/12 02:09:17;;;;;;;11.20;2.23;;;11.90;99.90;;;13.05;100.00;98418.22;5057706;28;20460;-82
2021/09/12 02:11:46;;;;;;;5.60;2.67;;;11.90;99.90;;;13.01;100.00;98422.22;5060992;28;20468;-82
2021/09/12 02:14:14;;;;;;;2.30;2.10;;;11.80;99.90;;;12.97;100.00;98423.59;5052341;28;20944;-82
2021/09/12 02:16:44;;;;;;;12.77;2.70;;;11.90;99.90;;;12.96;100.00;98419.34;5058283;28;20514;-82
2021/09/12 02:19:12;;;;;;;3.60;2.40;;;11.80;99.90;;;12.93;100.00;98423.19;5055002;28;20460;-82
2021/09/12 02:21:41;;;;;;;7.60;3.33;;;11.80;99.90;;;12.93;100.00;98425.00;5060243;28;20502;-82
2021/09/12 02:24:09;;;;;;;4.03;2.53;;;11.80;99.90;;;12.92;100.00;98423.34;5064316;28;20498;-82
2021/09/12 02:26:38;;;;;;;10.43;2.77;;;11.80;99.90;;;12.95;100.00;98422.97;5063971;28;20460;-82
2021/09/12 02:29:06;;;;;;;6.87;2.50;;;11.80;99.90;;;12.96;100.00;98422.78;5056967;28;20460;-82
2021/09/12 02:31:35;;;;;;;7.07;3.07;;;11.80;99.90;;;12.83;100.00;98414.84;5057882;28;21018;-82
2021/09/12 02:34:05;;;;;;;5.43;2.17;;;11.70;99.90;;;12.83;100.00;98420.09;5056939;28;20491;-82
2021/09/12 02:36:33;;;;;;;3.17;2.10;;;11.60;99.90;;;12.82;100.00;98422.88;5052807;28;20500;-82
2021/09/12 02:39:02;;;;;;;9.40;2.70;;;11.60;99.90;;;12.70;100.00;98419.19;5053670;28;20881;-82
2021/09/12 02:41:30;;;;;;;5.00;2.10;;;11.50;99.90;;;12.74;100.00;98420.44;5064978;28;20518;-82
2021/09/12 02:43:58;;;;;;;4.47;2.40;;;11.60;99.90;;;12.79;100.00;98407.53;5062333;28;20492;-82
2021/09/12 02:46:27;;;;;;;3.40;2.43;;;11.60;99.90;;;12.74;100.00;98405.47;5065340;28;20817;-82
2021/09/12 02:48:56;;;;;;;5.10;2.70;;;11.50;99.90;;;12.61;100.00;98405.38;5062255;28;20995;-82
2021/09/12 02:51:25;;;;;;;2.57;2.07;;;11.40;99.90;;;12.61;100.00;98408.81;5060257;28;20510;-82
2021/09/12 02:53:54;;;;;;;3.47;2.20;;;11.50;99.90;;;12.68;100.00;98400.19;5065465;28;20483;-82
2021/09/12 02:56:22;;;;;;;5.33;2.50;;;11.70;99.90;;;12.72;100.00;98412.75;5064228;28;20578;-82
2021/09/12 02:58:51;;;;;;;6.17;2.60;;;11.70;99.90;;;12.63;100.00;98409.44;5058613;28;20461;-82
2021/09/12 03:01:19;;;;;;;5.80;2.17;;;11.60;99.90;;;12.58;100.00;98406.59;5068538;28;20521;-82
2021/09/12 03:03:48;;;;;;;4.50;2.30;;;11.60;99.90;;;12.48;100.00;98411.34;5068727;28;20559;-82
2021/09/12 03:06:17;;;;;;;6.23;2.50;;;11.40;99.90;;;12.48;100.00;98411.34;5061245;28;20465;-82
2021/09/12 03:08:47;;;;;;;8.93;2.50;;;11.40;99.90;;;12.43;100.00;98405.84;5058844;28;20518;-82
2021/09/12 03:11:15;;;;;;;5.37;2.87;;;11.30;99.90;;;12.46;100.00;98408.09;5054418;28;20484;-82
2021/09/12 03:13:44;;;;;;;7.63;2.67;;;11.30;99.90;;;12.46;100.00;98407.31;5066979;28;20960;-82
2021/09/12 03:16:12;;;;;;;6.30;2.30;;;11.30;99.90;;;12.50;100.00;98408.53;5059364;28;20495;-82
2021/09/12 03:18:41;;;;;;;4.37;2.77;;;11.40;99.90;;;12.46;100.00;98408.09;5060695;28;20456;-82
2021/09/12 03:21:09;;;;;;;4.10;2.10;;;11.30;99.90;;;12.35;100.00;98408.63;5061807;28;20493;-82
2021/09/12 03:23:39;;;;;;;2.83;2.00;;;11.20;99.90;;;12.40;100.00;98402.78;5052541;28;20861;-82
2021/09/12 03:26:08;;;;;;;3.70;2.53;;;11.30;99.90;;;12.41;100.00;98396.56;5055694;28;20461;-82
2021/09/12 03:28:37;;;;;;;9.03;1.90;;;11.30;99.90;;;12.38;100.00;98403.00;5057238;28;20488;-82
2021/09/12 03:31:06;;;;;;;2.70;2.20;;;11.30;99.90;;;12.32;100.00;98395.88;5057234;28;20496;-82
2021/09/12 03:33:35;;;;;;;6.77;2.00;;;11.20;99.90;;;12.24;100.00;98398.66;5067636;28;20510;-82
2021/09/12 03:36:05;;;;;;;3.00;2.07;;;11.10;99.90;;;12.32;100.00;98395.88;5065684;28;20549;-82
2021/09/12 03:38:34;;;;;;;2.60;2.10;;;11.30;99.90;;;12.39;100.00;98388.88;5058315;28;20593;-82
2021/09/12 03:41:02;;;;;;;5.97;2.00;;;11.30;99.90;;;12.40;100.00;98387.88;5071116;28;20490;-82
2021/09/12 03:43:32;;;;;;;11.00;2.63;;;11.30;99.90;;;12.30;100.00;98386.56;5053037;28;20485;-82
2021/09/12 03:46:01;;;;;;;9.43;2.50;;;11.20;99.90;;;12.21;100.00;98388.53;5058964;28;21072;-82
2021/09/12 03:48:30;;;;;;;6.87;2.20;;;11.10;99.90;;;12.21;100.00;98388.53;5058339;28;20453;-82
2021/09/12 03:50:58;;;;;;;10.43;2.43;;;11.10;99.90;;;12.22;100.00;98389.34;5062540;28;20905;-82
2021/09/12 03:53:27;;;;;;;2.10;1.80;;;11.10;99.90;;;12.25;100.00;98394.22;5054201;28;20481;-82
2021/09/12 03:55:55;;;;;;;4.90;1.90;;;11.10;99.90;;;12.19;100.00;98385.28;5060221;28;20996;-83
2021/09/12 03:58:24;;;;;;;7.10;2.60;;;11.10;99.90;;;12.15;100.00;98389.28;5065108;28;20514;-82
2021/09/12 04:00:53;;;;;;;3.03;2.23;;;11.00;99.90;;;12.18;100.00;98388.91;5056257;28;20460;-82
2021/09/12 04:03:23;;;;;;;3.63;2.50;;;11.10;99.90;;;12.18;100.00;98388.09;5061330;28;20515;-82
2021/09/12 04:05:52;;;;;;;4.00;1.83;;;11.10;99.90;;;12.06;100.00;98388.59;5052567;28;20445;-82
2021/09/12 04:08:20;;;;;;;7.30;2.10;;;11.00;99.90;;;12.01;100.00;98388.34;5069428;28;20513;-82
2021/09/12 04:10:49;;;;;;;8.40;2.03;;;10.90;99.90;;;12.04;100.00;98390.59;5062152;28;20518;-82
2021/09/12 04:13:17;;;;;;;7.33;2.20;;;10.90;99.90;;;12.05;100.00;98394.84;5060847;28;20523;-82
2021/09/12 04:15:46;;;;;;;2.30;1.90;;;11.00;99.90;;;12.03;100.00;98386.34;5064339;28;20488;-82
2021/09/12 04:18:16;;;;;;;3.37;2.03;;;10.90;99.90;;;11.99;100.00;98394.78;5052073;28;20810;-82
2021/09/12 04:20:44;;;;;;;4.80;2.20;;;11.00;99.90;;;12.01;100.00;98392.75;5063057;28;20460;-82
2021/09/12 04:23:13;;;;;;;11.37;1.93;;;10.90;99.90;;;11.97;100.00;98389.75;5052671;28;20527;-82
2021/09/12 04:25:41;;;;;;;7.40;2.20;;;10.90;99.90;;;12.01;100.00;98387.53;5062956;28;20457;-82
2021/09/12 04:28:09;;;;;;;4.23;2.50;;;10.90;99.90;;;11.92;100.00;98391.28;5054213;28;20514;-82
2021/09/12 04:30:38;;;;;;;2.70;1.97;;;10.70;99.90;;;11.92;100.00;98388.66;5057844;28;20464;-82
2021/09/12 04:33:07;;;;;;;3.73;1.90;;;10.70;99.90;;;11.91;100.00;98387.84;5052859;28;20492;-82
2021/09/12 04:35:36;;;;;;;5.07;2.03;;;10.80;99.90;;;11.88;100.00;98382.16;5060347;28;20489;-82
2021/09/12 04:38:05;;;;;;;2.30;2.10;;;10.70;99.90;;;11.82;100.00;98393.41;5054179;28;20457;-82
2021/09/12 04:40:33;;;;;;;4.60;2.07;;;10.70;99.90;;;11.76;100.00;98394.97;5067110;28;20468;-82
2021/09/12 04:43:02;;;;;;;2.57;2.20;;;10.60;99.90;;;11.85;100.00;98388.59;5063490;28;20516;-82
2021/09/12 04:45:30;;;;;;;4.10;2.40;;;10.80;99.90;;;11.87;100.00;98394.44;5064682;28;21016;-82
2021/09/12 04:47:59;;;;;;;2.20;2.00;;;10.80;99.90;;;11.82;100.00;98409.13;5063961;28;20468;-82
2021/09/12 04:50:27;;;;;;;2.23;1.93;;;10.70;99.90;;;11.80;100.00;98405.88;5057330;28;20534;-82
2021/09/12 04:52:57;;;;;;;2.40;2.20;;;10.60;99.90;;;11.78;100.00;98402.63;5055164;28;20468;-82
2021/09/12 04:55:26;;;;;;;4.70;2.20;;;10.60;99.90;;;11.68;100.00;98396.84;5055466;28;20533;-82
2021/09/12 04:57:54;;;;;;;2.10;1.90;;;10.60;99.90;;;11.67;100.00;98400.44;5056023;28;20495;-82
2021/09/12 05:00:23;;;;;;;12.40;2.30;;;10.50;99.90;;;11.72;100.00;98403.38;5051092;28;20480;-82
2021/09/12 05:02:51;;;;;;;4.83;2.23;;;10.60;99.90;;;11.71;100.00;98401.75;5062172;28;20456;-82
2021/09/12 05:05:21;;;;;;;3.37;2.10;;;10.60;99.90;;;11.69;100.00;98395.84;5061816;28;21012;-82
2021/09/12 05:07:49;;;;;;;2.20;2.00;;;10.60;99.90;;;11.69;100.00;98399.28;5063562;28;20449;-82
2021/09/12 05:10:19;;;;;;;4.50;2.00;;;10.60;99.90;;;11.68;100.00;98397.66;5062731;28;20495;-81
2021/09/12 05:12:48;;;;;;;5.30;2.00;;;10.60;99.90;;;11.57;100.00;98406.81;5063094;28;20468;-82
2021/09/12 05:15:17;;;;;;;14.93;2.17;;;10.50;99.90;;;11.65;100.00;98411.13;5062595;28;20469;-82
2021/09/12 05:17:45;;;;;;;4.10;2.03;;;10.60;99.90;;;11.63;100.00;98408.69;5059466;28;20495;-82
2021/09/12 05:20:14;;;;;;;5.17;2.00;;;10.50;99.90;;;11.52;100.00;98408.38;5057550;28;20477;-82
2021/09/12 05:22:43;;;;;;;5.23;2.00;;;10.40;99.90;;;11.42;100.00;98410.47;5059337;28;20494;-82
2021/09/12 05:25:12;;;;;;;3.17;2.17;;;10.30;99.90;;;11.42;100.00;98413.88;5060978;28;20469;-82
2021/09/12 05:27:42;;;;;;;3.93;2.10;;;10.30;99.90;;;11.52;100.00;98409.16;5062462;28;21170;-81
2021/09/12 05:30:11;;;;;;;3.37;2.20;;;10.40;99.90;;;11.53;100.00;98416.03;5058890;28;20464;-81
2021/09/12 05:32:45;;;;;;;7.47;2.10;;;10.50;99.90;;;11.58;100.00;98413.69;5053578;28;20461;-82
2021/09/12 05:35:15;;;;;;;5.77;2.00;;;10.60;99.90;;;11.66;100.00;98419.81;5056105;28;21000;-78
2021/09/12 05:37:44;;;;;;;2.80;2.10;;;10.70;99.90;;;11.69;100.00;98419.44;5060653;28;20500;-81
2021/09/12 05:40:15;;;;;;;2.60;1.97;;;10.70;99.90;;;11.55;100.00;98418.47;5059407;28;21010;-81
2021/09/12 05:42:45;;;;;;;1.70;1.60;;;10.50;99.90;;;11.57;100.00;98422.53;5055872;28;21351;-81
2021/09/12 05:45:14;;;;;;;6.70;1.93;;;10.50;99.90;;;11.58;100.00;98418.09;5059842;28;20465;-81
2021/09/12 05:47:43;;;;;;;3.60;1.93;;;10.50;99.90;;;11.67;100.00;98418.78;5054818;28;20513;-81
2021/09/12 05:50:12;;;;;;;2.20;2.00;;;10.60;99.90;;;11.68;100.00;98421.22;5058100;28;20874;-81
2021/09/12 05:52:42;;;;;;;4.47;2.00;;;10.70;99.90;;;11.68;100.00;98425.66;5056532;28;20513;-81
2021/09/12 05:55:11;;;;;;;4.13;2.37;;;10.60;99.90;;;11.63;100.00;98430.66;5054380;28;20847;-81
2021/09/12 05:57:39;;;;;;;6.37;2.10;;;10.60;99.90;;;11.60;100.00;98429.19;5054859;28;20973;-80
2021/09/12 06:00:11;;;;;;;3.20;2.30;;;10.60;99.90;;;11.58;100.00;98424.16;5065107;28;20448;-81
2021/09/12 06:02:40;;;;;;;3.63;2.60;;;10.60;99.90;;;11.63;100.00;98427.00;5055796;28;20449;-81
2021/09/12 06:05:10;;;;;;;3.37;2.43;;;10.70;99.90;;;11.65;100.00;98426.84;5065356;28;20483;-81
2021/09/12 06:07:39;;;;;;;2.70;2.10;;;10.70;99.90;;;11.69;100.00;98432.53;5061803;28;20975;-81
2021/09/12 06:10:08;;;;;;;3.13;2.00;;;10.70;99.90;;;11.68;100.00;98423.03;5071882;28;20440;-80
2021/09/12 06:12:37;;;;;;;6.13;2.40;;;10.70;99.90;;;11.67;100.00;98432.69;5055369;28;20888;-80
2021/09/12 06:15:09;;;;;;;3.70;2.50;;;10.60;99.90;;;11.78;100.00;98431.44;5058115;28;20495;-80
2021/09/12 06:17:37;;;;;;;3.40;2.83;;;10.80;99.90;;;11.80;100.00;98429.47;5060651;28;20545;-81
2021/09/12 06:20:07;;;;;;;4.40;2.20;;;10.80;99.90;;;11.87;100.00;98432.97;5056403;28;20448;-81
2021/09/12 06:22:41;;;;;;;4.93;2.30;;;10.90;99.90;;;11.95;100.00;98428.41;5053363;28;20452;-80
2021/09/12 06:25:10;;;;;;;10.70;3.23;;;11.00;99.90;;;11.86;100.00;98426.09;5062969;28;20494;-80
2021/09/12 06:27:39;;;;;;;3.03;2.20;;;10.90;99.90;;;11.89;100.00;98428.34;5073110;28;20812;-81
2021/09/12 06:30:12;;;;;;;10.30;2.70;;;10.90;99.90;;;11.87;100.00;98427.72;5063287;28;20500;-80
2021/09/12 06:32:41;;;;;;;4.90;2.13;;;10.80;99.90;;;11.86;100.00;98429.53;5058335;28;20479;-80
2021/09/12 06:35:11;;;;;;;4.30;2.40;;;10.80;99.90;;;11.94;100.00;98426.78;5052584;28;20503;-80
2021/09/12 06:37:40;;;;;;;2.50;2.30;;;10.90;99.90;;;12.01;100.00;98427.66;5052679;28;21066;-80
2021/09/12 06:40:11;;;;;;;3.03;2.30;;;11.00;99.90;;;12.03;100.00;98422.25;5053889;28;20468;-80
2021/09/12 06:42:40;;;;;;;3.07;2.43;;;11.00;99.90;;;12.03;100.00;98425.69;5062526;28;20498;-81
2021/09/12 06:45:11;;;;;;;9.50;2.70;;;11.00;99.90;;;12.03;100.00;98424.88;5056839;28;20460;-81
2021/09/12 06:47:40;;;;;;;6.40;3.43;;;11.00;99.90;;;12.15;100.00;98425.97;5054715;28;20475;-81
2021/09/12 06:50:10;;;;;;;9.07;3.10;;;11.10;99.90;;;12.24;100.00;98427.50;5056996;28;20878;-81
2021/09/12 06:52:39;;;;;;;15.10;3.40;;;11.20;99.90;;;12.23;100.00;98422.41;5052406;28;20526;-81
2021/09/12 06:55:08;;;;;;;12.10;3.10;;;11.20;99.90;;;12.24;100.00;98427.50;5056234;28;20490;-81
2021/09/12 06:57:37;;;;;;;2.63;2.10;;;11.20;99.90;;;12.25;100.00;98426.47;5059710;28;20488;-81
2021/09/12 07:00:10;;;;;;;3.07;2.70;;;11.20;99.90;;;12.26;100.00;98433.34;5061298;28;20468;-81
2021/09/12 07:02:42;;;;;;;9.60;2.70;;;11.30;99.90;;;12.36;100.00;98433.03;5061344;28;20464;-81
2021/09/12 07:05:12;;;;;;;3.07;2.80;;;11.40;99.90;;;12.40;100.00;98427.22;5057573;28;21047;-82
2021/09/12 07:07:41;;;;;;;6.27;2.67;;;11.40;99.90;;;12.48;100.00;98436.78;5054611;28;20540;-81
2021/09/12 07:10:11;;;;;;;3.90;2.90;;;11.50;99.90;;;12.54;100.00;98436.81;5059422;28;20513;-81
2021/09/12 07:12:39;;;;;;;4.20;2.47;;;11.60;99.90;;;12.61;100.00;98435.06;5054763;28;20492;-81
2021/09/12 07:15:10;;;;;;;4.23;2.63;;;11.70;99.90;;;12.67;100.00;98435.31;5057508;28;20456;-81
2021/09/12 07:17:39;;;;;;;3.90;2.53;;;11.80;99.90;;;12.74;100.00;98426.47;5066722;28;20488;-81
2021/09/12 07:20:09;;;;;;;12.23;2.60;;;11.80;99.90;;;12.83;100.00;98440.25;5059051;28;20464;-81
2021/09/12 07:22:38;;;;;;;5.03;2.50;;;12.00;99.90;;;12.93;100.00;98433.69;5067589;28;21000;-82
2021/09/12 07:25:08;;;;;;;3.60;2.93;;;12.10;99.90;;;13.02;100.00;98432.50;5053467;28;20447;-80
2021/09/12 07:27:36;;;;;;;2.80;2.60;;;12.10;99.90;;;13.13;100.00;98433.81;5065386;28;20479;-81
2021/09/12 07:30:12;;;;;;;4.50;3.40;;;12.20;99.90;;;13.23;100.00;98431.66;5058302;28;20519;-81
2021/09/12 07:32:41;;;;;;;2.83;2.27;;;12.40;99.90;;;13.32;100.00;98438.38;5066677;28;20546;-81
2021/09/12 07:35:12;;;;;;;7.17;2.20;;;12.50;99.90;;;13.43;100.00;98437.81;5066778;28;20510;-81
2021/09/12 07:37:40;;;;;;;4.17;2.60;;;12.60;99.90;;;13.54;100.00;98433.81;5061959;28;20496;-83
2021/09/12 07:40:10;;;;;;;7.03;2.57;;;12.70;99.90;;;13.63;100.00;98435.28;5063439;28;20594;-81
2021/09/12 07:42:41;;;;;;;5.97;4.30;;;12.80;99.90;;;13.72;100.00;98426.19;5059702;28;20469;-81
2021/09/12 07:45:11;;;;;;;3.40;3.10;;;12.90;99.90;;;13.83;100.00;98427.44;5051897;28;20536;-81
2021/09/12 07:47:40;;;;;;;5.50;2.50;;;13.00;99.90;;;13.91;100.00;98429.91;5051824;28;20926;-82
2021/09/12 07:50:10;;;;;;;6.80;2.43;;;13.10;99.90;;;13.99;100.00;98424.44;5050979;28;20949;-81
2021/09/12 07:52:42;;;;;;;3.13;2.57;;;13.20;99.90;;;14.08;100.00;98423.28;5052117;28;20973;-81
2021/09/12 07:55:12;;;;;;;7.90;2.13;;;13.30;99.90;;;14.16;100.00;98428.31;5063409;28;20510;-81
2021/09/12 07:57:41;;;;;;;4.13;1.93;;;13.30;99.90;;;14.23;100.00;98418.63;5058192;28;20992;-81
2021/09/12 08:00:13;;;;;;;5.80;2.33;;;13.40;99.90;;;14.31;100.00;98423.69;5063957;28;20805;-81
2021/09/12 08:02:43;;;;;;;2.23;1.73;;;13.50;99.90;;;14.39;100.00;98422.72;5057264;28;20467;-81
2021/09/12 08:05:12;;;;;;;3.67;2.30;;;13.60;99.90;;;14.47;100.00;98428.59;5054960;28;20450;-81
2021/09/12 08:07:41;;;;;;;2.37;1.87;;;13.70;99.90;;;14.55;100.00;98427.56;5053492;28;20934;-81
2021/09/12 08:10:11;;;;;;;3.73;2.00;;;13.80;99.90;;;14.64;100.00;98428.19;5056010;28;20460;-81
2021/09/12 08:12:40;;;;;;;3.93;2.10;;;13.80;99.90;;;14.71;100.00;98426.38;5055056;28;20477;-81
2021/09/12 08:15:11;;;;;;;3.80;2.50;;;13.90;99.90;;;14.79;100.00;98431.41;5058339;28;20991;-81
2021/09/12 08:17:43;;;;;;;5.33;2.77;;;14.00;99.90;;;14.86;100.00;98429.56;5057608;28;20449;-82
2021/09/12 08:20:13;;;;;;;3.00;2.27;;;14.00;99.90;;;14.95;100.00;98428.38;5051884;28;20865;-82
2021/09/12 08:22:42;;;;;;;4.67;2.20;;;14.20;99.90;;;15.03;100.00;98441.31;5052242;28;20445;-82
2021/09/12 08:25:12;;;;;;;2.83;1.97;;;14.30;99.90;;;15.13;100.00;98438.25;5051439;28;20502;-81
2021/09/12 08:27:40;;;;;;;2.50;2.27;;;14.40;99.90;;;15.22;100.00;98439.66;5064492;28;20452;-82
2021/09/12 08:30:11;;;;;;;10.10;2.60;;;14.50;99.90;;;15.30;100.00;98439.44;5051925;28;20465;-82
2021/09/12 08:32:39;;;;;;;4.53;2.00;;;14.60;99.90;;;15.38;100.00;98442.63;5057234;28;20473;-81
2021/09/12 08:35:10;;;;;;;8.37;2.80;;;14.70;99.90;;;15.47;100.00;98438.78;5058196;28;20439;-82
2021/09/12 08:37:39;;;;;;;4.50;2.10;;;14.80;99.90;;;15.55;100.00;98440.38;5058726;28;20456;-82
2021/09/12 08:40:10;;;;;;;2.33;2.03;;;14.90;99.90;;;15.65;100.00;98435.50;5053662;28;20465;-82
2021/09/12 08:42:42;;;;;;;5.90;1.93;;;14.90;99.90;;;15.74;100.00;98443.97;5062984;28;20543;-82
2021/09/12 08:45:13;;;;;;;6.00;2.00;;;15.00;99.90;;;15.81;100.00;98434.19;5049641;28;20865;-81
2021/09/12 08:47:42;;;;;;;3.97;2.00;;;15.10;99.90;;;15.90;100.00;98438.19;5065321;28;20539;-81
2021/09/12 08:50:12;;;;;;;12.63;7.83;;;15.20;99.90;;;15.97;100.00;98445.06;5061710;28;20459;-82
2021/09/12 08:52:40;;;;;;;9.40;5.00;;;15.30;99.90;;;16.07;100.00;98441.94;5058234;28;20453;-81
2021/09/12 08:55:09;;;;;;;6.60;2.30;;;15.40;99.90;;;16.16;100.00;98448.59;5062150;28;20514;-82
2021/09/12 08:57:49;;;;;;;2.77;2.10;;;15.50;99.90;;;16.23;100.00;98452.03;5056954;28;20522;-81
2021/09/12 09:00:22;;;;;;;3.00;1.80;;;15.60;99.90;;;16.31;100.00;98441.22;5058008;28;20461;-80
2021/09/12 09:02:51;;;;;;;7.53;2.10;;;15.60;99.90;;;16.39;100.00;98440.94;5049414;28;20508;-80
2021/09/12 09:05:31;;;;;;;5.63;2.00;;;15.70;99.90;;;16.46;100.00;98428.50;5050344;28;20449;-81
2021/09/12 09:08:08;;;;;;;2.10;1.80;;;15.80;99.90;;;16.53;100.00;98429.25;5060850;28;20537;-81
2021/09/12 09:10:44;;;;;;;5.30;1.87;;;15.90;99.90;;;16.62;100.00;98431.66;5054103;28;20505;-81
2021/09/12 09:13:35;;;;;;;7.23;2.33;;;16.00;99.90;;;16.70;100.00;98429.53;5067614;28;20467;-81
2021/09/12 09:16:08;;;;;;;5.87;2.00;;;16.00;99.90;;;16.79;100.00;98427.44;5055503;28;20461;-81
2021/09/12 09:18:39;;;;;;;3.30;2.47;;;16.10;99.90;;;16.85;100.00;98427.38;5052006;28;21024;-81
2021/09/12 09:21:25;;;;;;;3.70;1.70;;;16.20;99.90;;;16.92;100.00;98422.84;5065249;28;20460;-81
2021/09/12 09:24:17;;;;;;;12.60;8.97;;;16.20;99.90;;;17.03;100.00;98431.91;5056463;28;20465;-80
2021/09/12 09:26:48;;;;;;;27.23;16.70;;;16.30;99.90;;;17.12;100.00;98420.00;5055525;28;20519;-81
2021/09/12 09:29:24;;;;;;;4.53;3.43;;;16.40;99.90;;;17.20;100.00;98416.25;5056599;28;20447;-81
2021/09/12 09:32:05;;;;;;;2.27;1.90;;;16.60;99.90;;;17.28;100.00;98422.09;5057397;28;20461;-81
2021/09/12 09:34:34;;;;;;;3.40;1.97;;;16.60;99.90;;;17.36;100.00;98419.13;5052469;28;20444;-81
2021/09/12 09:37:12;;;;;;;1.80;1.70;;;16.70;99.90;;;17.45;100.00;98414.34;5056950;28;20441;-81
2021/09/12 09:39:44;;;;;;;4.43;1.80;;;16.80;99.90;;;17.52;100.00;98407.97;5053351;28;20531;-81
2021/09/12 09:42:37;;;;;;;7.87;1.80;;;16.90;99.90;;;17.62;100.00;98407.47;5052691;28;20813;-81
2021/09/12 09:45:09;;;;;;;2.57;1.83;;;17.00;99.90;;;17.70;100.00;98404.50;5064234;28;20990;-81
2021/09/12 09:47:41;;;;;;;2.17;1.80;;;17.10;99.90;;;17.78;100.00;98408.66;5058135;28;20855;-81
2021/09/12 09:50:13;;;;;;;2.83;1.73;;;17.20;99.90;;;17.84;100.00;98407.78;5051474;28;20999;-82
2021/09/12 09:52:45;;;;;;;2.30;1.77;;;17.20;99.90;;;17.91;100.00;98405.88;5050389;28;20936;-81
2021/09/12 09:55:15;;;;;;;5.00;1.70;;;17.30;99.90;;;17.99;100.00;98402.88;5049484;28;20441;-81
2021/09/12 09:57:46;;;;;;;2.90;1.73;;;17.40;99.90;;;18.03;100.00;98398.75;5055171;28;20445;-81
2021/09/12 10:00:17;;;;;;;2.10;1.50;;;17.50;99.90;;;18.11;100.00;98398.44;5057072;28;20492;-81
2021/09/12 10:02:47;;;;;;;3.07;2.03;;;17.50;99.90;;;18.17;100.00;98392.25;5055109;28;20522;-81
2021/09/12 10:05:18;;;;;;;2.00;1.80;;;17.60;99.90;;;18.21;100.00;98385.47;5061548;28;20857;-82
2021/09/12 10:07:46;;;;;;;4.63;1.80;;;17.60;99.90;;;18.26;100.00;98388.22;5062987;28;20812;-81
2021/09/12 10:10:19;;;;;;;3.23;1.60;;;17.60;99.90;;;18.33;100.00;98388.91;5062083;28;20515;-81
2021/09/12 10:12:55;;;;;;;5.00;1.93;;;17.70;99.90;;;18.38;100.00;98389.06;5056295;28;20449;-81
2021/09/12 10:15:28;;;;;;;6.40;2.03;;;17.80;99.90;;;18.42;100.00;98384.94;5060688;28;20855;-81
2021/09/12 10:18:00;;;;;;;2.80;1.80;;;17.70;99.90;;;18.45;100.00;98389.75;5056329;28;20819;-81
2021/09/12 10:20:31;;;;;;;2.77;1.80;;;17.80;99.90;;;18.50;100.00;98389.09;5052204;28;20488;-81
2021/09/12 10:23:02;;;;;;;2.50;1.80;;;17.80;99.90;;;18.56;100.00;98389.00;5055700;28;20476;-82
2021/09/12 10:25:33;;;;;;;2.67;2.20;;;17.90;99.90;;;18.64;100.00;98387.81;5060208;28;20958;-83